Time;durP1;ratioP1;P1;durP2;ratioP2;P2;SDS_P1;SDS_P2;PMS_P1;PMS_P2;Temp;Humidity;BMP_temperature;BMP_pressure;BME280_temperature;BME280_humidity;BME280_pressure;Samples;Min_cycle;Max_cycle;Signal;HPM_P1;HPM_P2
2022/06/28 00:00:16;;;;;;;10.10;2.13;;;;;;;13.34;100.00;101867.88;5033059;28;20033;-59
2022/06/28 00:02:41;;;;;;;8.52;1.80;;;;;;;13.47;100.00;101899.25;5033245;28;20380;-58
2022/06/28 00:05:07;;;;;;;5.75;2.10;;;;;;;13.41;100.00;101915.28;5032979;28;20485;-57
2022/06/28 00:07:32;;;;;;;6.93;1.75;;;;;;;13.16;100.00;101871.91;5032986;28;20037;-57
2022/06/28 00:09:58;;;;;;;8.20;1.88;;;;;;;13.34;100.00;101908.41;5032947;28;20039;-59
2022/06/28 00:12:23;;;;;;;8.25;2.20;;;;;;;13.29;100.00;101890.94;5032886;28;20550;-59
2022/06/28 00:17:33;;;;;;;6.57;1.60;;;;;;;12.92;100.00;101835.50;5032402;28;20091;-59
2022/06/28 00:19:58;;;;;;;3.88;1.25;;;;;;;13.28;100.00;101899.78;5032436;28;20033;-59
2022/06/28 00:22:24;;;;;;;5.38;1.63;;;;;;;13.03;100.00;101865.16;5031319;28;20515;-60
2022/06/28 00:24:49;;;;;;;10.63;1.77;;;;;;;12.82;100.00;101831.34;5032347;28;20096;-58
2022/06/28 00:27:14;;;;;;;7.53;1.88;;;;;;;13.20;100.00;101893.81;5032702;28;20037;-58
2022/06/28 00:29:40;;;;;;;6.72;1.50;;;;;;;12.79;100.00;101829.66;5032658;28;20136;-59
2022/06/28 00:32:05;;;;;;;7.10;1.77;;;;;;;13.13;100.00;101879.91;5032717;28;20042;-59
2022/06/28 00:34:31;;;;;;;4.50;1.20;;;;;;;12.87;100.00;101824.19;5031116;28;20038;-59
2022/06/28 00:36:56;;;;;;;11.30;1.88;;;;;;;13.20;100.00;101878.84;5032295;28;20090;-58
2022/06/28 00:39:22;;;;;;;6.28;1.50;;;;;;;13.25;100.00;101895.44;5032514;28;20109;-59
2022/06/28 00:41:47;;;;;;;5.28;1.63;;;;;;;12.88;100.00;101837.34;5032396;28;20040;-59
2022/06/28 00:44:13;;;;;;;5.75;1.80;;;;;;;13.23;100.00;101901.66;5031295;28;20076;-59
2022/06/28 00:46:39;;;;;;;6.07;2.10;;;;;;;13.17;100.00;101889.47;5031132;28;20036;-60
2022/06/28 00:49:04;;;;;;;8.35;1.45;;;;;;;13.17;100.00;101900.06;5032440;28;20040;-59
2022/06/28 00:51:30;;;;;;;6.75;2.25;;;;;;;13.19;100.00;101897.38;5032443;28;20037;-59
2022/06/28 00:53:56;;;;;;;4.93;1.40;;;;;;;12.80;100.00;101827.91;5031044;28;20104;-60
2022/06/28 00:56:22;;;;;;;5.13;1.35;;;;;;;13.20;100.00;101901.75;5032274;28;20065;-59
2022/06/28 00:58:48;;;;;;;5.40;1.42;;;;;;;13.16;100.00;101902.75;5031257;28;20048;-59
2022/06/28 01:01:13;;;;;;;2.85;1.17;;;;;;;13.15;100.00;101911.59;5032453;28;20476;-57
2022/06/28 01:03:38;;;;;;;7.30;1.42;;;;;;;13.16;100.00;101910.69;5032238;28;20034;-59
2022/06/28 01:06:04;;;;;;;7.18;1.38;;;;;;;13.12;100.00;101907.25;5032064;28;20485;-59
2022/06/28 01:08:30;;;;;;;5.38;1.40;;;;;;;12.99;100.00;101892.56;5032137;28;20034;-59
2022/06/28 01:10:55;;;;;;;3.97;1.20;;;;;;;13.06;100.00;101909.16;5032069;28;20388;-59
2022/06/28 01:13:20;;;;;;;9.45;1.70;;;;;;;13.10;100.00;101918.78;5032334;28;20117;-60
2022/06/28 01:15:46;;;;;;;7.55;1.38;;;;;;;13.13;100.00;101908.13;5031046;28;20033;-60
2022/06/28 01:18:13;;;;;;;5.70;1.85;;;;;;;12.79;100.00;101849.94;5030959;28;20087;-59
2022/06/28 01:20:45;;;;;;;10.63;1.60;;;;;;;12.79;100.00;101855.22;5032024;28;20068;-59
2022/06/28 01:23:10;;;;;;;7.40;1.52;;;;;;;12.81;100.00;101854.25;5031926;28;20160;-59
2022/06/28 01:25:36;;;;;;;7.15;1.60;;;;;;;13.22;100.00;101918.47;5030569;28;20068;-58
2022/06/28 01:28:02;;;;;;;4.60;1.40;;;;;;;13.13;100.00;101903.72;5031011;28;20037;-58
2022/06/28 01:30:27;;;;;;;7.45;1.55;;;;;;;13.23;100.00;101914.88;5034845;28;20030;-58
2022/06/28 01:32:53;;;;;;;6.45;1.65;;;;;;;13.16;100.00;101916.84;5018241;28;20075;-59
2022/06/28 01:35:18;;;;;;;6.85;1.55;;;;;;;13.10;100.00;101913.50;5034699;28;20033;-59
2022/06/28 01:37:44;;;;;;;8.93;1.70;;;;;;;13.13;100.00;101931.91;5018167;28;20041;-59
2022/06/28 01:40:09;;;;;;;5.00;1.23;;;;;;;12.76;100.00;101873.78;5034335;28;20080;-60
2022/06/28 01:42:35;;;;;;;6.72;1.65;;;;;;;13.01;100.00;101919.84;5035844;28;20065;-58
2022/06/28 01:45:01;;;;;;;4.10;1.40;;;;;;;12.95;100.00;101912.06;5035698;28;20065;-59
2022/06/28 01:47:28;;;;;;;7.40;1.65;;;;;;;12.68;100.00;101865.19;5034391;28;20116;-59
2022/06/28 01:49:54;;;;;;;5.53;1.83;;;;;;;12.98;100.00;101931.38;5035580;28;20036;-59
2022/06/28 01:52:20;;;;;;;8.27;1.60;;;;;;;12.97;100.00;101923.47;5035550;28;20122;-57
2022/06/28 01:54:45;;;;;;;6.80;1.38;;;;;;;12.62;100.00;101889.09;5033940;28;20103;-59
2022/06/28 01:57:11;;;;;;;5.68;1.67;;;;;;;12.91;100.00;101929.78;5035455;28;20037;-59
2022/06/28 01:59:37;;;;;;;5.28;1.60;;;;;;;12.87;100.00;101924.63;5035526;28;20034;-59
2022/06/28 02:02:03;;;;;;;7.15;1.65;;;;;;;12.80;100.00;101930.94;5034312;28;20501;-58
2022/06/28 02:04:29;;;;;;;8.90;2.00;;;;;;;12.76;100.00;101937.19;5034054;28;20183;-59
2022/06/28 02:06:55;;;;;;;3.30;1.27;;;;;;;12.37;100.00;101879.13;5035303;28;20124;-59
2022/06/28 02:09:20;;;;;;;11.05;1.98;;;;;;;12.64;100.00;101941.00;5033868;28;20112;-58
2022/06/28 02:11:46;;;;;;;7.43;1.70;;;;;;;12.25;100.00;101871.50;5034041;28;20033;-58
2022/06/28 02:14:11;;;;;;;7.10;1.65;;;;;;;12.22;100.00;101878.63;5035248;28;20038;-59
2022/06/28 02:16:37;;;;;;;6.15;1.58;;;;;;;12.57;100.00;101936.78;5033751;28;20489;-58
2022/06/28 02:19:03;;;;;;;6.65;1.90;;;;;;;12.15;100.00;101871.72;5033791;28;20034;-61
2022/06/28 02:21:29;;;;;;;5.57;1.55;;;;;;;12.21;100.00;101877.75;5033735;28;20033;-57
2022/06/28 02:23:56;;;;;;;5.05;1.48;;;;;;;12.53;100.00;101948.31;5034237;28;20519;-59
2022/06/28 02:26:21;;;;;;;8.68;2.15;;;;;;;12.51;100.00;101933.41;5034310;28;20025;-59
2022/06/28 02:28:46;;;;;;;6.07;1.50;;;;;;;12.51;100.00;101939.56;5034714;28;20487;-58
2022/06/28 02:31:13;;;;;;;8.00;2.70;;;;;;;12.14;100.00;101878.78;5033678;28;20113;-58
2022/06/28 02:33:39;;;;;;;6.95;2.25;;;;;;;12.26;100.00;101894.34;5034792;28;20065;-58
2022/06/28 02:41:33;;;;;;;9.43;1.70;;;;;;;12.53;100.00;101939.50;5033738;28;20100;-59
2022/06/28 02:43:58;;;;;;;8.85;3.15;;;;;;;12.54;100.00;101952.69;5033273;28;20073;-59
2022/06/28 02:46:24;;;;;;;8.73;2.35;;;;;;;12.13;100.00;101873.53;5034369;28;20052;-58
2022/06/28 02:48:49;;;;;;;9.15;1.90;;;;;;;12.50;100.00;101940.44;5034474;28;20033;-59
2022/06/28 02:51:14;;;;;;;9.95;2.13;;;;;;;12.41;100.00;101927.44;5034209;28;20443;-59
2022/06/28 02:53:40;;;;;;;6.88;2.08;;;;;;;12.46;100.00;101945.84;5034551;28;20037;-58
2022/06/28 02:56:05;;;;;;;5.53;1.80;;;;;;;12.04;100.00;101879.91;5033196;28;20269;-59
2022/06/28 02:58:31;;;;;;;5.18;2.50;;;;;;;12.14;100.00;101907.81;5034295;28;20037;-59
2022/06/28 03:00:57;;;;;;;7.18;1.95;;;;;;;12.38;100.00;101948.63;5034047;28;20495;-59
2022/06/28 03:03:22;;;;;;;4.10;1.98;;;;;;;12.38;100.00;101949.50;5034084;28;20112;-59
2022/06/28 03:05:47;;;;;;;6.70;2.10;;;;;;;11.99;100.00;101883.53;5032877;28;20083;-58
2022/06/28 03:08:13;;;;;;;9.98;2.67;;;;;;;12.01;100.00;101884.38;5034202;28;20408;-58
2022/06/28 03:10:38;;;;;;;7.13;2.13;;;;;;;12.15;100.00;101919.25;5034108;28;20052;-59
2022/06/28 03:13:04;;;;;;;6.35;1.92;;;;;;;12.05;100.00;101893.97;5032763;28;20116;-59
2022/06/28 03:15:29;;;;;;;9.30;2.38;;;;;;;12.12;100.00;101900.81;5033940;28;20037;-58
2022/06/28 03:17:55;;;;;;;8.00;2.15;;;;;;;12.14;100.00;101901.69;5033933;28;20034;-60
2022/06/28 03:20:20;;;;;;;6.90;2.42;;;;;;;12.42;100.00;101966.16;5033672;28;20087;-59
2022/06/28 03:22:46;;;;;;;7.78;2.33;;;;;;;12.07;100.00;101900.94;5033728;28;20033;-60
2022/06/28 03:25:11;;;;;;;8.85;2.40;;;;;;;12.10;100.00;101911.44;5032434;28;20037;-58
2022/06/28 03:27:37;;;;;;;10.40;2.30;;;;;;;12.46;100.00;101974.91;5033987;28;20261;-56
2022/06/28 03:30:04;;;;;;;10.30;2.05;;;;;;;12.13;100.00;101918.41;5032551;28;20103;-58
2022/06/28 03:32:29;;;;;;;8.48;2.28;;;;;;;12.43;100.00;101975.84;5032363;28;20075;-59
2022/06/28 03:34:55;;;;;;;6.95;2.15;;;;;;;12.10;100.00;101921.13;5032711;28;20056;-56
2022/06/28 03:37:20;;;;;;;7.07;2.00;;;;;;;12.41;100.00;101986.41;5033740;28;20025;-58
2022/06/28 03:39:46;;;;;;;13.57;2.78;;;;;;;12.26;100.00;101954.19;5032468;28;20069;-58
2022/06/28 03:42:11;;;;;;;11.52;3.35;;;;;;;12.05;100.00;101926.50;5033540;28;20041;-58
2022/06/28 03:44:36;;;;;;;9.93;2.03;;;;;;;12.38;100.00;101991.75;5033276;28;20120;-59
2022/06/28 03:47:03;;;;;;;9.02;3.05;;;;;;;12.12;100.00;101941.28;5033199;28;20091;-59
2022/06/28 03:49:28;;;;;;;11.48;2.13;;;;;;;12.37;100.00;101986.53;5033511;28;20395;-58
2022/06/28 03:51:53;;;;;;;6.45;2.25;;;;;;;12.09;100.00;101938.72;5032070;28;20034;-59
2022/06/28 03:54:19;;;;;;;14.05;2.40;;;;;;;12.04;100.00;101935.31;5033309;28;20480;-58
2022/06/28 03:56:44;;;;;;;7.00;2.10;;;;;;;12.08;100.00;101950.19;5032018;28;20037;-58
2022/06/28 03:59:09;;;;;;;14.30;2.70;;;;;;;12.39;100.00;102003.19;5033347;28;20416;-58
2022/06/28 04:01:35;;;;;;;10.32;2.30;;;;;;;11.98;100.00;101932.81;5032974;28;20036;-59
2022/06/28 04:04:00;;;;;;;10.50;2.33;;;;;;;12.05;100.00;101941.47;5032903;28;20077;-57
2022/06/28 04:06:25;;;;;;;9.45;2.60;;;;;;;12.36;100.00;102008.53;5033060;28;20163;-59
2022/06/28 04:08:50;;;;;;;8.77;2.72;;;;;;;12.45;100.00;102002.19;5032815;28;20472;-59
2022/06/28 04:11:16;;;;;;;10.65;2.38;;;;;;;12.38;100.00;101996.16;5033145;28;20033;-59
2022/06/28 04:13:49;;;;;;;10.80;3.50;;;;;;;12.46;100.00;102015.38;5032953;28;20044;-60
2022/06/28 04:16:15;;;;;;;8.80;2.85;;;;;;;12.28;100.00;101976.16;5031455;28;20041;-58
2022/06/28 04:18:43;;;;;;;13.32;2.95;;;;;;;12.49;100.00;101996.81;5032579;28;20497;-59
2022/06/28 04:21:10;;;;;;;10.57;3.05;;;;;;;12.52;100.00;101994.09;5030530;28;20083;-58
2022/06/28 04:23:36;;;;;;;14.65;2.75;;;;;;;12.62;100.00;102008.84;5032668;28;20385;-60
2022/06/28 04:26:02;;;;;;;10.30;2.83;;;;;;;12.62;100.00;102022.06;5032681;28;20056;-58
2022/06/28 04:28:28;;;;;;;9.50;2.72;;;;;;;12.63;100.00;102012.38;5032341;28;20041;-58
2022/06/28 04:30:53;;;;;;;14.70;3.72;;;;;;;12.31;100.00;101955.84;5031243;28;20420;-59
2022/06/28 04:33:18;;;;;;;9.10;3.38;;;;;;;12.69;100.00;102013.09;5032128;28;20038;-59
2022/06/28 04:35:43;;;;;;;14.73;3.60;;;;;;;12.37;100.00;101954.84;5032468;28;20033;-60
2022/06/28 04:38:09;;;;;;;10.13;3.42;;;;;;;12.51;100.00;101959.81;5032449;28;20040;-58
2022/06/28 04:40:35;;;;;;;9.02;2.80;;;;;;;12.69;100.00;101991.97;5032481;28;20037;-59
2022/06/28 04:43:02;;;;;;;13.15;3.42;;;;;;;12.79;100.00;102008.44;5032407;28;20033;-59
2022/06/28 04:45:27;;;;;;;14.23;2.90;;;;;;;12.82;100.00;102006.63;5032202;28;20033;-58
2022/06/28 04:47:52;;;;;;;8.35;2.88;;;;;;;12.79;100.00;101988.19;5032464;28;20044;-60
2022/06/28 04:50:18;;;;;;;8.45;2.80;;;;;;;12.88;100.00;101995.91;5032391;28;20451;-59
2022/06/28 04:52:43;;;;;;;9.50;3.25;;;;;;;12.62;100.00;101941.94;5032129;28;20037;-58
2022/06/28 04:55:08;;;;;;;7.30;3.03;;;;;;;12.96;100.00;101996.59;5031206;28;20046;-57
2022/06/28 04:57:34;;;;;;;11.63;3.13;;;;;;;12.78;100.00;101954.75;5032837;28;20025;-58
2022/06/28 04:59:59;;;;;;;11.63;3.15;;;;;;;13.12;100.00;102002.41;5031008;28;20037;-58
2022/06/28 05:02:25;;;;;;;8.48;3.60;;;;;;;13.16;100.00;102008.50;5032109;28;20120;-58
2022/06/28 05:04:50;;;;;;;13.48;3.63;;;;;;;12.87;100.00;101951.03;5034040;28;20037;-58
2022/06/28 05:07:15;;;;;;;16.30;4.20;;;;;;;13.26;100.00;102010.88;5036544;28;20498;-58
2022/06/28 05:09:41;;;;;;;12.82;3.60;;;;;;;13.31;100.00;102011.63;5036074;28;20037;-58
2022/06/28 05:12:07;;;;;;;14.30;3.55;;;;;;;13.35;100.00;102013.28;5035185;28;20034;-58
2022/06/28 05:14:33;;;;;;;14.27;3.67;;;;;;;13.40;100.00;102003.47;5036204;28;20064;-60
2022/06/28 05:16:59;;;;;;;15.88;3.55;;;;;;;13.42;100.00;101998.13;5036375;28;20041;-59
2022/06/28 05:19:25;;;;;;;12.98;3.67;;;;;;;13.56;100.00;101997.78;5036146;28;20034;-58
2022/06/28 05:21:50;;;;;;;17.63;4.43;;;;;;;13.66;100.00;102002.78;5034775;28;20103;-59
2022/06/28 05:24:16;;;;;;;11.50;4.07;;;;;;;13.74;100.00;102008.75;5034765;28;20080;-58
2022/06/28 05:26:42;;;;;;;12.82;4.22;;;;;;;13.88;100.00;102005.72;5033463;28;20045;-57
2022/06/28 05:29:08;;;;;;;12.93;4.15;;;;;;;14.02;100.00;101990.31;5035703;28;20083;-58
2022/06/28 05:31:33;;;;;;;9.00;3.65;;;;;;;14.17;100.00;101996.94;5035640;28;20045;-59
2022/06/28 05:34:00;;;;;;;13.88;4.45;;;;;;;14.26;100.00;101997.56;5035923;28;20120;-59
2022/06/28 05:36:25;;;;;;;14.65;3.58;;;;;;;14.38;100.00;101999.88;5035860;28;20389;-59
2022/06/28 05:38:51;;;;;;;17.90;3.60;;;;;;;14.55;100.00;101999.38;5035895;28;20064;-59
2022/06/28 05:41:16;;;;;;;12.52;3.28;;;;;;;14.28;100.00;101937.47;5035579;28;20037;-57
2022/06/28 05:43:41;;;;;;;13.85;3.92;;;;;;;14.76;100.00;102008.44;5035454;28;20034;-59
2022/06/28 05:46:07;;;;;;;16.55;4.78;;;;;;;14.85;100.00;102006.38;5035327;28;20064;-57
2022/06/28 05:48:32;;;;;;;18.67;4.10;;;;;;;14.66;100.00;101954.84;5035680;28;20038;-59
2022/06/28 05:50:57;;;;;;;17.00;4.45;;;;;;;15.06;100.00;102007.50;5035647;28;20164;-58
2022/06/28 05:53:22;;;;;;;11.57;4.07;;;;;;;15.17;100.00;102000.91;5035603;28;20477;-58
2022/06/28 05:55:48;;;;;;;13.07;3.55;;;;;;;15.32;100.00;102001.31;5035360;28;20040;-57
2022/06/28 05:58:13;;;;;;;16.73;4.75;;;;;;;15.17;100.00;101962.91;5035309;28;20029;-58
2022/06/28 06:00:39;;;;;;;13.65;3.50;;;;;;;15.51;100.00;101994.47;5035210;28;20039;-58
2022/06/28 06:03:04;;;;;;;14.23;3.78;;;;;;;15.60;100.00;102008.31;5035352;28;20044;-59
2022/06/28 06:05:30;;;;;;;11.10;3.25;;;;;;;15.67;100.00;101993.06;5035253;28;20113;-57
2022/06/28 06:07:55;;;;;;;14.07;3.58;;;;;;;15.72;100.00;101991.09;5033694;28;20116;-58
2022/06/28 06:10:20;;;;;;;14.20;4.03;;;;;;;15.87;100.00;102009.13;5035178;28;20037;-57
2022/06/28 06:12:46;;;;;;;11.52;3.42;;;;;;;15.88;100.00;101981.63;5035120;28;20485;-57
2022/06/28 06:15:11;;;;;;;11.18;3.65;;;;;;;16.13;100.00;102000.22;5034818;28;20243;-58
2022/06/28 06:17:36;;;;;;;13.73;4.47;;;;;;;16.34;100.00;102018.88;5033875;28;20029;-59
2022/06/28 06:20:03;;;;;;;15.25;3.95;;;;;;;16.51;100.00;102025.34;5033610;28;20132;-57
2022/06/28 06:22:30;;;;;;;10.43;3.40;;;;;;;16.52;100.00;102008.50;5035093;28;20071;-59
2022/06/28 06:24:55;;;;;;;13.95;3.33;;;;;;;16.75;100.00;102024.44;5034780;28;20576;-59
2022/06/28 06:27:20;;;;;;;15.77;4.03;;;;;;;16.54;100.00;101972.09;5033546;28;20121;-58
2022/06/28 06:29:46;;;;;;;11.27;3.90;;;;;;;16.90;100.00;102034.44;5033526;28;20124;-58
2022/06/28 06:32:11;;;;;;;9.50;3.35;;;;;;;16.91;100.00;102027.34;5033529;28;20064;-57
2022/06/28 06:34:36;;;;;;;15.05;3.08;;;;;;;17.00;100.00;102032.31;5034880;28;20040;-58
2022/06/28 06:37:02;;;;;;;16.75;3.58;;;;;;;17.06;100.00;102042.69;5035138;28;20045;-58
2022/06/28 06:39:27;;;;;;;18.05;3.72;;;;;;;16.86;100.00;101977.00;5034612;28;20033;-58
2022/06/28 06:41:52;;;;;;;12.77;4.00;;;;;;;17.20;100.00;102027.91;5034889;28;20030;-57
2022/06/28 06:44:18;;;;;;;11.35;3.60;;;;;;;17.38;100.00;102037.81;5034466;28;20087;-58
2022/06/28 06:46:44;;;;;;;9.30;3.28;;;;;;;17.53;100.00;102043.41;5033463;28;20064;-57
2022/06/28 06:49:09;;;;;;;16.00;3.30;;;;;;;17.65;100.00;102038.47;5033315;28;20392;-58
2022/06/28 06:51:35;;;;;;;17.63;3.60;;;;;;;17.67;100.00;102057.91;5034569;28;20041;-59
2022/06/28 06:54:00;;;;;;;15.73;3.70;;;;;;;17.68;100.00;102038.34;5034307;28;20037;-58
2022/06/28 06:56:25;;;;;;;11.57;3.63;;;;;;;17.83;100.00;102050.13;5034131;28;20076;-58
2022/06/28 06:58:51;;;;;;;11.90;3.50;;;;;;;17.73;100.00;102001.72;5034154;28;20116;-58
2022/06/28 07:01:16;;;;;;;12.95;3.20;;;;;;;17.90;100.00;102032.94;5032675;28;20103;-58
2022/06/28 07:03:44;;;;;;;16.45;3.58;;;;;;;18.31;100.00;102049.75;5034981;28;20034;-58
2022/06/28 07:06:13;;;;;;;11.30;3.00;;;;;;;18.63;100.00;102054.50;5033944;28;20037;-58
2022/06/28 07:08:39;;;;;;;12.90;3.20;;;;;;;19.00;100.00;102059.81;5032553;28;20189;-58
2022/06/28 07:11:04;;;;;;;10.02;3.03;;;;;;;19.05;100.00;102068.47;5033085;28;20116;-59
2022/06/28 07:13:30;;;;;;;11.30;2.92;;;;;;;18.65;100.00;101995.78;5033616;28;20087;-60
2022/06/28 07:15:55;;;;;;;12.20;3.22;;;;;;;18.86;100.00;102053.41;5033474;28;20496;-59
2022/06/28 07:18:21;;;;;;;12.15;3.17;;;;;;;18.93;100.00;102087.75;5033760;28;20469;-59
2022/06/28 07:20:46;;;;;;;9.20;2.58;;;;;;;18.73;100.00;102076.28;5034013;28;20036;-58
2022/06/28 07:23:12;;;;;;;7.90;2.72;;;;;;;18.70;100.00;102079.94;5041260;28;20053;-59
2022/06/28 07:25:37;;;;;;;9.40;3.00;;;;;;;18.81;100.00;102085.66;5035699;28;20061;-58
2022/06/28 07:28:03;;;;;;;11.98;3.75;;;;;;;18.62;100.00;102079.44;5031958;28;20116;-58
2022/06/28 07:30:28;;;;;;;17.40;4.03;;;;;;;18.63;100.00;102073.16;5032674;28;20126;-58
2022/06/28 07:32:54;;;;;;;11.65;3.60;;;;;;;18.22;100.00;102010.16;5033541;28;20040;-58
2022/06/28 07:35:24;;;;;;;11.35;3.88;;;;;;;18.57;100.00;102067.25;5031911;28;20033;-58
2022/06/28 07:37:50;;;;;;;12.53;3.47;;;;;;;18.76;100.00;102084.13;5031495;28;20048;-59
2022/06/28 07:40:15;;;;;;;11.15;3.53;;;;;;;19.08;100.00;102084.34;5032084;28;20779;-58
2022/06/28 07:42:40;;;;;;;14.90;3.90;;;;;;;19.46;100.00;102071.81;5033355;28;20042;-57
2022/06/28 07:45:06;;;;;;;7.13;2.60;;;;;;;19.57;100.00;102021.41;5033461;28;20461;-58
2022/06/28 07:47:31;;;;;;;4.82;2.13;;;;;;;20.44;100.00;102084.53;5032261;28;20033;-56
2022/06/28 07:52:41;;;;;;;9.05;2.50;;;;;;;21.30;100.00;102057.44;5033676;28;20433;-58
2022/06/28 07:55:08;;;;;;;9.07;2.22;;;;;;;22.07;100.00;102095.69;5031778;28;20029;-58
2022/06/28 07:57:33;;;;;;;6.80;2.35;;;;;;;22.29;100.00;102112.22;5033377;28;20083;-58
2022/06/28 07:59:59;;;;;;;9.77;2.65;;;;;;;22.13;100.00;102123.94;5031880;28;20443;-59
2022/06/28 08:02:24;;;;;;;6.78;2.08;;;;;;;22.48;100.00;102119.97;5032981;28;20453;-59
2022/06/28 08:04:50;;;;;;;9.30;2.53;;;;;;;22.70;100.00;102074.78;5032955;28;20063;-60
2022/06/28 08:07:15;;;;;;;8.93;2.92;;;;;;;23.14;100.00;102069.25;5031721;28;20088;-59
2022/06/28 08:09:41;;;;;;;7.57;2.67;;;;;;;23.97;100.00;102084.22;5032849;28;20040;-57
2022/06/28 08:12:07;;;;;;;6.88;2.90;;;;;;;24.24;100.00;102079.69;5031747;28;20052;-59
2022/06/28 08:14:33;;;;;;;7.68;2.70;;;;;;;24.90;100.00;102130.56;5033044;28;20037;-59
2022/06/28 08:16:58;;;;;;;8.73;2.47;;;;;;;25.26;100.00;102110.00;5031556;28;20036;-58
2022/06/28 08:19:24;;;;;;;8.48;2.80;;;;;;;25.14;100.00;102133.31;5031524;28;20029;-56
2022/06/28 08:21:49;;;;;;;11.35;3.00;;;;;;;25.45;100.00;102113.06;5032745;28;20369;-58
2022/06/28 08:24:16;;;;;;;6.60;2.35;;;;;;;25.25;100.00;102121.78;5032390;28;20115;-57
2022/06/28 08:26:42;;;;;;;9.02;2.95;;;;;;;24.45;100.00;102118.53;5032669;28;20044;-56
2022/06/28 08:29:15;;;;;;;5.38;2.45;;;;;;;23.47;100.00;102090.34;5031559;28;20064;-58
2022/06/28 08:31:41;;;;;;;7.28;2.53;;;;;;;23.06;100.00;102125.25;5032589;28;20030;-58
2022/06/28 08:34:07;;;;;;;10.48;2.85;;;;;;;22.51;100.00;102076.00;5032441;28;20060;-56
2022/06/28 08:36:32;;;;;;;9.90;2.90;;;;;;;22.88;100.00;102113.03;5031222;28;20029;-59
2022/06/28 08:38:58;;;;;;;8.98;3.47;;;;;;;23.21;100.00;102112.66;5030167;28;20041;-56
2022/06/28 08:41:28;;;;;;;8.45;2.38;;;;;;;23.99;100.00;102128.06;5032342;28;20080;-57
2022/06/28 08:43:54;;;;;;;6.65;2.55;;;;;;;24.56;100.00;102094.41;5032119;28;20370;-58
2022/06/28 08:46:21;;;;;;;6.80;1.80;;;;;;;24.90;100.00;102084.78;5031148;28;20048;-56
2022/06/28 08:48:51;;;;;;;5.70;2.13;;;;;;;25.60;100.00;102125.41;5032407;28;20037;-57
2022/06/28 08:51:17;;;;;;;6.47;1.95;;;;;;;25.84;100.00;102112.78;5029561;28;20079;-53
2022/06/28 08:53:46;;;;;;;7.30;2.40;;;;;;;26.38;100.00;102106.81;5030906;28;20120;-58
2022/06/28 08:56:12;;;;;;;9.30;2.42;;;;;;;26.32;100.00;102096.50;5029604;28;20384;-56
2022/06/28 08:58:42;;;;;;;10.88;3.05;;;;;;;25.95;100.00;102088.53;5030798;28;20033;-57
2022/06/28 09:01:11;;;;;;;8.73;2.47;;;;;;;26.25;100.00;102102.38;5030656;28;20052;-58
2022/06/28 09:03:37;;;;;;;7.57;2.55;;;;;;;25.97;100.00;102067.72;5029327;28;20547;-56
2022/06/28 09:06:03;;;;;;;7.68;1.60;;;;;;;26.33;100.00;102106.34;5030376;28;20492;-54
2022/06/28 09:08:29;;;;;;;10.68;3.13;;;;;;;26.42;100.00;102054.28;5030542;28;20056;-57
2022/06/28 09:10:54;;;;;;;11.18;3.30;;;;;;;26.82;100.00;102102.31;5030716;28;20064;-52
2022/06/28 09:13:21;;;;;;;6.18;2.58;;;;;;;26.74;100.00;102076.88;5030389;28;20040;-56
2022/06/28 09:16:00;;;;;;;6.13;1.67;;;;;;;26.97;100.00;102111.00;5030531;28;20038;-52
2022/06/28 09:18:34;;;;;;;6.13;1.40;;;;;;;27.24;100.00;102114.16;5030401;28;20029;-55
2022/06/28 09:21:00;;;;;;;9.95;2.13;;;;;;;27.28;100.00;102102.13;5030623;28;20037;-57
2022/06/28 09:23:26;;;;;;;5.20;2.15;;;;;;;26.93;100.00;102114.09;5030449;28;20136;-55
2022/06/28 09:25:54;;;;;;;7.80;2.28;;;;;;;27.09;100.00;102096.50;5030383;28;20116;-55
2022/06/28 09:28:40;;;;;;;7.43;2.35;;;;;;;27.34;100.00;102112.44;5030249;28;20057;-56
2022/06/28 09:31:17;;;;;;;6.82;1.83;;;;;;;27.26;100.00;102070.81;5031654;28;20029;-52
2022/06/28 09:33:45;;;;;;;7.88;2.67;;;;;;;27.65;100.00;102097.22;5032182;28;20084;-54
2022/06/28 09:36:12;;;;;;;7.38;1.95;;;;;;;27.52;100.00;102107.38;5032022;28;20034;-53
2022/06/28 09:38:38;;;;;;;7.97;2.33;;;;;;;27.76;100.00;102083.66;5032046;28;20042;-55
2022/06/28 09:41:03;;;;;;;4.88;1.95;;;;;;;27.62;100.00;102050.63;5031836;28;20118;-56
2022/06/28 09:43:32;;;;;;;6.80;1.98;;;;;;;27.99;100.00;102106.06;5031844;28;20489;-58
2022/06/28 09:45:58;;;;;;;5.93;2.08;;;;;;;27.93;100.00;102109.28;5030666;28;20033;-56
2022/06/28 09:48:23;;;;;;;5.93;1.80;;;;;;;27.50;100.00;102044.41;5031948;28;20041;-56
2022/06/28 09:50:56;;;;;;;5.82;1.80;;;;;;;27.55;100.00;102055.72;5033580;28;20048;-57
2022/06/28 09:53:22;;;;;;;6.38;1.83;;;;;;;28.03;94.42;102099.38;5035637;28;20030;-54
2022/06/28 09:55:48;;;;;;;8.00;2.13;;;;;;;28.06;98.77;102101.84;5034300;28;20040;-57
2022/06/28 09:58:13;;;;;;;5.05;1.60;;;;;;;27.88;91.59;102092.56;5035371;28;20079;-59
2022/06/28 10:00:41;;;;;;;6.32;1.70;;;;;;;27.50;96.99;102047.13;5033948;28;20120;-49
2022/06/28 10:03:07;;;;;;;6.70;2.10;;;;;;;27.60;96.90;102049.91;5018000;28;20033;-56
2022/06/28 10:05:33;;;;;;;6.38;2.15;;;;;;;28.09;100.00;102093.47;5035209;28;20120;-56
2022/06/28 10:07:59;;;;;;;4.38;1.70;;;;;;;28.12;100.00;102046.31;5033994;28;20040;-51
2022/06/28 10:10:25;;;;;;;5.15;1.70;;;;;;;28.35;92.77;102083.06;5035114;28;20049;-56
2022/06/28 10:16:02;;;;;;;7.65;1.27;;;;;;;28.05;93.19;102072.22;5019039;28;20044;-54
2022/06/28 10:18:28;;;;;;;7.60;1.95;;;;;;;28.16;99.51;102066.72;5033943;28;20039;-55
2022/06/28 10:20:53;;;;;;;7.32;1.98;;;;;;;28.64;100.00;102081.38;5033863;28;20033;-55
2022/06/28 10:23:33;;;;;;;7.75;2.08;;;;;;;28.60;100.00;102076.34;5034756;28;20065;-55
2022/06/28 10:26:07;;;;;;;5.57;1.70;;;;;;;28.67;96.90;102023.34;5035060;28;20049;-53
2022/06/28 10:28:59;;;;;;;4.25;1.70;;;;;;;29.22;96.89;102074.28;5032947;28;20376;-52
2022/06/28 10:31:25;;;;;;;5.50;1.67;;;;;;;29.51;100.00;102075.19;5034789;28;20061;-55
2022/06/28 10:33:53;;;;;;;4.22;1.33;;;;;;;29.72;91.69;102069.63;5035021;28;20059;-49
2022/06/28 10:36:19;;;;;;;3.65;1.40;;;;;;;29.68;82.57;102061.91;5034642;28;20053;-54
2022/06/28 10:39:06;;;;;;;4.63;1.60;;;;;;;29.42;86.07;102054.34;5034681;28;20064;-49
2022/06/28 10:41:40;;;;;;;8.68;1.67;;;;;;;29.18;84.73;102063.84;5034679;28;20033;-49
2022/06/28 10:44:13;;;;;;;9.07;2.47;;;;;;;29.49;89.95;102066.34;5034482;28;20434;-50
2022/06/28 10:46:39;;;;;;;3.38;1.42;;;;;;;29.54;98.85;102023.34;5034574;28;20038;-54
2022/06/28 10:49:07;;;;;;;4.45;1.33;;;;;;;29.26;72.48;102005.25;5034559;28;20132;-54
2022/06/28 10:51:33;;;;;;;3.65;1.40;;;;;;;29.36;75.21;102056.78;5034777;28;20095;-54
2022/06/28 10:54:07;;;;;;;3.45;1.15;;;;;;;29.50;78.58;102057.22;5034470;28;20037;-51
2022/06/28 10:56:38;;;;;;;4.57;1.50;;;;;;;29.40;77.03;102007.53;5034475;28;20424;-52
2022/06/28 10:59:04;;;;;;;;;;;;;;;29.68;72.07;102043.78;5034539;28;20056;-57
2022/06/28 11:01:38;;;;;;;5.47;1.00;;;;;;;29.85;78.33;102047.66;5033673;28;20019;-53
2022/06/28 11:04:21;;;;;;;3.17;1.10;;;;;;;29.55;63.41;101999.81;5033925;28;20075;-55
2022/06/28 11:06:56;;;;;;;2.25;1.00;;;;;;;30.14;90.84;102048.44;5033990;28;20045;-55
2022/06/28 11:09:34;;;;;;;4.28;1.15;;;;;;;30.06;77.38;102035.56;5033062;28;20025;-51
2022/06/28 11:12:06;;;;;;;4.15;1.48;;;;;;;30.47;95.23;102042.47;5034178;28;20025;-55
2022/06/28 11:14:34;;;;;;;4.70;1.48;;;;;;;30.60;80.85;102040.28;5032722;28;20374;-55
2022/06/28 11:17:00;;;;;;;2.80;1.02;;;;;;;30.19;72.85;101989.09;5032653;28;20037;-52
2022/06/28 11:19:25;;;;;;;3.20;1.38;;;;;;;30.48;67.96;102035.19;5033745;28;20037;-56
2022/06/28 11:21:55;;;;;;;4.63;1.40;;;;;;;30.53;76.16;102025.56;5032802;28;20040;-55
2022/06/28 11:24:23;;;;;;;4.57;1.57;;;;;;;30.47;67.15;101998.19;5032393;28;20048;-50
2022/06/28 11:29:32;;;;;;;3.90;1.15;;;;;;;30.97;72.95;102028.53;5033824;28;20538;-55